Time;durP1;ratioP1;P1;durP2;ratioP2;P2;SDS_P1;SDS_P2;PMS_P1;PMS_P2;Temp;Humidity;BMP_temperature;BMP_pressure;BME280_temperature;BME280_humidity;BME280_pressure;Samples;Min_cycle;Max_cycle;Signal;HPM_P1;HPM_P2
2023/04/09 00:01:08;;;;;;;44.67;19.67;;;8.80;99.90;;;;;;6152130;22;20015;-86
2023/04/09 00:03:34;;;;;;;43.75;18.52;;;8.80;99.90;;;;;;6152207;22;20015;-90
2023/04/09 00:06:15;;;;;;;47.58;19.55;;;8.70;99.90;;;;;;6152288;22;20015;-88
2023/04/09 00:09:06;;;;;;;44.28;18.83;;;8.80;99.90;;;;;;6153910;22;20098;-90
2023/04/09 00:11:47;;;;;;;45.67;19.08;;;8.70;99.90;;;;;;6153333;22;20446;-91
2023/04/09 00:14:13;;;;;;;43.55;16.80;;;8.70;99.90;;;;;;6151793;22;20019;-91
2023/04/09 00:16:39;;;;;;;41.40;18.33;;;8.70;99.90;;;;;;6176476;22;20451;-88
2023/04/09 00:19:05;;;;;;;40.58;17.10;;;8.70;99.90;;;;;;6152141;22;20015;-91
2023/04/09 00:21:31;;;;;;;38.88;17.95;;;8.70;99.90;;;;;;6151998;22;20061;-92
2023/04/09 00:23:56;;;;;;;41.47;16.90;;;8.70;99.90;;;;;;6176241;22;20079;-91
2023/04/09 00:28:57;;;;;;;36.38;17.27;;;8.70;99.90;;;;;;6344424;22;20022;-96
2023/04/09 00:31:23;;;;;;;43.33;17.60;;;8.70;99.90;;;;;;6411364;22;20049;-90
2023/04/09 00:33:49;;;;;;;33.47;15.90;;;8.60;99.90;;;;;;6278144;22;20017;-87
2023/04/09 00:36:15;;;;;;;39.53;18.93;;;8.60;99.90;;;;;;6272344;22;20118;-91
2023/04/09 00:38:41;;;;;;;39.35;16.77;;;8.60;99.90;;;;;;6271364;22;20018;-89
2023/04/09 00:41:07;;;;;;;37.50;15.87;;;8.70;99.90;;;;;;6269326;22;20018;-88
2023/04/09 00:43:32;;;;;;;32.85;14.68;;;8.60;99.90;;;;;;6269271;22;20021;-93
2023/04/09 00:45:59;;;;;;;34.90;14.63;;;8.60;99.90;;;;;;6402835;22;20431;-88
2023/04/09 00:48:25;;;;;;;32.95;14.40;;;8.60;99.90;;;;;;6242648;22;20097;-92
2023/04/09 00:50:51;;;;;;;33.17;15.05;;;8.60;99.90;;;;;;6403818;22;20020;-94
2023/04/09 00:53:18;;;;;;;29.92;14.60;;;8.60;99.90;;;;;;6294557;22;20458;-92
2023/04/09 00:55:44;;;;;;;;;;;8.60;99.90;;;;;;6268645;22;20025;-90
2023/04/09 00:58:10;;;;;;;26.17;12.20;;;8.60;99.90;;;;;;6245725;22;19989;-92
2023/04/09 01:00:37;;;;;;;28.67;12.95;;;8.60;99.90;;;;;;6245532;22;20023;-96
2023/04/09 01:03:05;;;;;;;27.92;12.30;;;8.50;99.90;;;;;;6246153;22;20432;-88
2023/04/09 01:05:53;;;;;;;27.65;12.68;;;8.60;99.90;;;;;;6247116;22;20047;-88
2023/04/09 01:09:09;;;;;;;27.17;11.82;;;8.60;99.90;;;;;;6246948;22;20516;-92
2023/04/09 01:11:47;;;;;;;25.08;11.23;;;8.60;99.90;;;;;;6273991;22;20062;-89
2023/04/09 01:14:37;;;;;;;26.02;11.23;;;8.60;99.90;;;;;;6245963;22;20012;-89
2023/04/09 01:17:14;;;;;;;25.10;10.63;;;8.60;99.90;;;;;;6246487;22;20401;-94
2023/04/09 01:19:51;;;;;;;26.85;11.57;;;8.70;99.90;;;;;;6277129;22;20019;-92
2023/04/09 01:22:51;;;;;;;22.73;10.45;;;8.60;99.90;;;;;;6272587;22;20062;-86
2023/04/09 01:25:28;;;;;;;23.38;9.45;;;8.60;99.90;;;;;;6222004;22;20356;-95
2023/04/09 01:28:16;;;;;;;20.40;9.35;;;8.60;99.90;;;;;;6224916;22;20041;-88
2023/04/09 01:30:47;;;;;;;21.58;10.75;;;8.60;99.90;;;;;;6238647;22;20116;-86
2023/04/09 01:33:14;;;;;;;21.10;8.50;;;8.60;99.90;;;;;;6262531;22;20020;-86
2023/04/09 01:35:45;;;;;;;21.45;9.18;;;8.60;99.90;;;;;;6251679;22;20340;-95
2023/04/09 01:38:13;;;;;;;21.35;8.80;;;8.70;99.90;;;;;;6222404;22;20444;-92
2023/04/09 01:40:39;;;;;;;18.73;8.35;;;8.60;99.90;;;;;;6220714;22;20051;-91
2023/04/09 01:43:06;;;;;;;22.65;9.18;;;8.60;99.90;;;;;;6220722;22;20102;-90
2023/04/09 01:45:33;;;;;;;;;;;8.60;99.90;;;;;;6273557;22;20452;-92
2023/04/09 01:47:59;;;;;;;19.75;8.43;;;8.60;99.90;;;;;;6195594;22;19915;-89
2023/04/09 01:50:25;;;;;;;17.88;8.05;;;8.60;99.90;;;;;;6221128;22;20098;-88
2023/04/09 01:52:51;;;;;;;17.77;8.35;;;8.60;99.90;;;;;;6221302;22;20051;-94
2023/04/09 01:55:17;;;;;;;17.35;8.82;;;8.60;99.90;;;;;;6195532;22;20022;-88
2023/04/09 01:57:43;;;;;;;17.50;8.07;;;8.60;99.90;;;;;;6195634;22;20016;-95
2023/04/09 02:00:09;;;;;;;16.97;8.43;;;8.60;99.90;;;;;;6170725;22;20020;-88
2023/04/09 02:02:43;;;;;;;21.88;9.55;;;8.60;99.90;;;;;;6195871;22;20012;-93
2023/04/09 02:05:10;;;;;;;20.70;8.93;;;8.60;99.90;;;;;;6245802;22;20015;-91
2023/04/09 02:07:47;;;;;;;19.67;9.50;;;8.60;99.90;;;;;;6195307;22;20432;-93
2023/04/09 02:10:16;;;;;;;18.10;7.80;;;8.60;99.90;;;;;;6246023;22;20015;-95
2023/04/09 02:12:46;;;;;;;17.20;7.90;;;8.60;99.90;;;;;;6220706;22;20011;-89
2023/04/09 02:15:13;;;;;;;17.67;8.20;;;8.60;99.90;;;;;;6219841;22;20356;-89
2023/04/09 02:17:38;;;;;;;18.40;8.48;;;8.60;99.90;;;;;;6220689;22;20046;-95
2023/04/09 02:20:05;;;;;;;20.17;9.37;;;8.50;99.90;;;;;;6245864;22;20020;-92
2023/04/09 02:22:30;;;;;;;19.33;8.73;;;8.50;99.90;;;;;;6246166;22;20043;-92
2023/04/09 02:24:56;;;;;;;19.33;9.03;;;8.50;99.90;;;;;;6220846;22;20408;-89
2023/04/09 02:27:22;;;;;;;15.60;7.60;;;8.50;99.90;;;;;;6245785;22;20019;-90
2023/04/09 02:29:47;;;;;;;18.50;8.47;;;8.40;99.90;;;;;;6246143;22;20026;-95
2023/04/09 02:32:13;;;;;;;18.80;9.13;;;8.40;99.90;;;;;;6195519;22;20045;-95
2023/04/09 02:34:39;;;;;;;18.17;8.27;;;8.40;99.90;;;;;;6272913;22;20023;-91
2023/04/09 02:37:05;;;;;;;20.15;8.93;;;8.30;99.90;;;;;;6245749;22;20050;-92
2023/04/09 02:39:30;;;;;;;17.33;8.27;;;8.30;99.90;;;;;;6273414;22;20110;-89
2023/04/09 02:41:56;;;;;;;17.73;8.30;;;8.30;99.90;;;;;;6220461;22;20110;-93
2023/04/09 02:44:22;;;;;;;18.13;8.70;;;8.30;99.90;;;;;;6272711;22;20088;-89
2023/04/09 02:46:51;;;;;;;17.40;8.40;;;8.30;99.90;;;;;;6245776;22;20023;-89
2023/04/09 02:49:16;;;;;;;17.33;8.40;;;8.30;99.90;;;;;;6246237;22;20023;-95
2023/04/09 02:51:42;;;;;;;23.07;10.03;;;8.30;99.90;;;;;;6273399;22;20541;-94
2023/04/09 02:54:08;;;;;;;22.10;9.27;;;8.30;99.90;;;;;;6273082;22;20020;-88
2023/04/09 02:56:33;;;;;;;18.87;9.33;;;8.40;99.90;;;;;;6246524;22;20023;-90
2023/04/09 02:58:59;;;;;;;22.50;9.30;;;8.30;99.90;;;;;;6220308;22;20022;-94
2023/04/09 03:01:25;;;;;;;21.63;8.67;;;8.30;99.90;;;;;;6274085;22;20019;-94
2023/04/09 03:03:51;;;;;;;21.47;9.63;;;8.40;99.90;;;;;;6245978;22;20015;-91
2023/04/09 03:06:17;;;;;;;22.40;9.33;;;8.40;99.90;;;;;;6245712;22;20024;-93
2023/04/09 03:08:43;;;;;;;21.60;8.90;;;8.40;99.90;;;;;;6245530;22;20023;-94
2023/04/09 03:11:08;;;;;;;20.13;9.57;;;8.40;99.90;;;;;;6272694;22;20015;-89
2023/04/09 03:13:34;;;;;;;18.13;8.70;;;8.30;99.90;;;;;;6246002;22;20452;-92
2023/04/09 03:16:00;;;;;;;20.87;9.07;;;8.30;99.90;;;;;;6245158;22;20027;-94
2023/04/09 03:18:25;;;;;;;19.33;9.60;;;8.30;99.90;;;;;;6272882;22;20016;-92
2023/04/09 03:20:51;;;;;;;20.37;9.77;;;8.30;99.90;;;;;;6272702;22;20019;-94
2023/04/09 03:23:17;;;;;;;21.10;9.87;;;8.30;99.90;;;;;;6220145;22;20020;-88
2023/04/09 03:25:42;;;;;;;21.60;9.43;;;8.40;99.90;;;;;;6245444;22;20020;-94
2023/04/09 03:28:08;;;;;;;19.20;9.10;;;8.30;99.90;;;;;;6245965;22;20037;-93
2023/04/09 03:30:34;;;;;;;20.63;8.53;;;8.30;99.90;;;;;;6240931;22;20090;-92
2023/04/09 03:32:59;;;;;;;21.33;9.47;;;8.30;99.90;;;;;;6242509;22;20032;-93
2023/04/09 03:35:25;;;;;;;21.30;9.40;;;8.20;99.90;;;;;;6216030;23;20444;-94
2023/04/09 03:37:51;;;;;;;20.37;8.17;;;8.20;99.90;;;;;;6240720;22;20330;-88
2023/04/09 03:40:17;;;;;;;17.23;8.47;;;8.20;99.90;;;;;;6240389;22;20345;-92
2023/04/09 03:42:43;;;;;;;17.80;8.33;;;8.10;99.90;;;;;;6215056;22;20044;-88
2023/04/09 03:45:09;;;;;;;16.95;8.13;;;8.10;99.90;;;;;;6240442;22;20449;-94
2023/04/09 03:47:34;;;;;;;21.60;8.23;;;8.10;99.90;;;;;;6243030;23;20027;-91
2023/04/09 03:50:00;;;;;;;17.90;8.03;;;8.10;99.90;;;;;;6242831;22;20103;-94
2023/04/09 03:52:26;;;;;;;17.00;9.10;;;8.10;99.90;;;;;;6242238;22;20039;-92
2023/04/09 03:54:52;;;;;;;18.27;7.87;;;8.00;99.90;;;;;;6214975;23;20073;-85
2023/04/09 03:57:18;;;;;;;18.33;8.17;;;8.00;99.90;;;;;;6240862;22;20020;-86
2023/04/09 03:59:44;;;;;;;16.27;7.77;;;8.00;99.90;;;;;;6242023;22;20058;-89
2023/04/09 04:02:09;;;;;;;17.67;8.05;;;8.10;99.90;;;;;;6215173;23;20017;-93
2023/04/09 04:04:35;;;;;;;16.10;7.37;;;8.00;99.90;;;;;;6240669;23;20055;-95
2023/04/09 04:07:02;;;;;;;16.80;7.63;;;8.00;99.90;;;;;;6243713;23;20326;-94
2023/04/09 04:09:28;;;;;;;20.80;8.77;;;7.90;99.90;;;;;;6251888;23;20456;-85
2023/04/09 04:11:55;;;;;;;20.00;9.33;;;7.90;99.90;;;;;;6258229;23;20015;-85
2023/04/09 04:14:20;;;;;;;17.60;8.88;;;7.80;99.90;;;;;;6234529;23;20037;-86
2023/04/09 04:16:46;;;;;;;18.10;7.70;;;7.80;99.90;;;;;;6217302;23;20019;-90
2023/04/09 04:19:12;;;;;;;20.33;9.07;;;7.80;99.90;;;;;;6240636;22;20016;-94
2023/04/09 04:21:37;;;;;;;19.23;9.03;;;7.80;99.90;;;;;;6241978;22;20081;-92
2023/04/09 04:24:03;;;;;;;20.63;8.33;;;7.80;99.90;;;;;;6240314;22;20056;-92
2023/04/09 04:26:29;;;;;;;20.40;9.20;;;7.80;99.90;;;;;;6241606;22;20087;-86
2023/04/09 04:28:55;;;;;;;22.93;8.63;;;7.80;99.90;;;;;;6245397;22;20090;-93
2023/04/09 04:31:20;;;;;;;17.60;8.87;;;7.80;99.90;;;;;;6272204;22;20039;-93
2023/04/09 04:33:46;;;;;;;18.90;8.40;;;7.80;99.90;;;;;;6219912;22;20019;-94
2023/04/09 04:36:13;;;;;;;19.50;8.70;;;7.80;99.90;;;;;;6245157;22;20043;-94
2023/04/09 04:38:42;;;;;;;21.38;9.73;;;7.80;99.90;;;;;;6272713;22;20079;-95
2023/04/09 04:41:10;;;;;;;20.95;8.60;;;7.80;99.90;;;;;;6246747;22;20014;-94
2023/04/09 04:43:35;;;;;;;22.90;9.95;;;7.80;99.90;;;;;;6273779;22;20027;-87
2023/04/09 04:46:01;;;;;;;22.83;10.37;;;7.80;99.90;;;;;;6247181;22;20347;-95
2023/04/09 04:48:28;;;;;;;22.87;10.30;;;7.70;99.90;;;;;;6274673;22;20012;-86
2023/04/09 04:50:58;;;;;;;23.55;10.00;;;7.70;99.90;;;;;;6273370;22;20102;-94
2023/04/09 04:53:24;;;;;;;25.15;11.88;;;7.70;99.90;;;;;;6247193;22;20016;-88
2023/04/09 04:55:50;;;;;;;23.77;10.20;;;7.70;99.90;;;;;;6221283;22;20088;-86
2023/04/09 04:58:16;;;;;;;23.50;11.33;;;7.70;99.90;;;;;;6246603;22;20134;-94
2023/04/09 05:00:42;;;;;;;28.13;11.25;;;7.70;99.90;;;;;;6246650;22;20035;-91
2023/04/09 05:03:07;;;;;;;25.60;11.87;;;7.70;99.90;;;;;;6271683;22;20110;-87
2023/04/09 05:05:33;;;;;;;22.37;10.77;;;7.70;99.90;;;;;;6274407;22;20074;-88
2023/04/09 05:07:59;;;;;;;22.37;9.90;;;7.70;99.90;;;;;;6274908;22;20476;-88
2023/04/09 05:10:25;;;;;;;30.50;12.57;;;7.80;99.90;;;;;;6275386;22;20015;-87
2023/04/09 05:12:50;;;;;;;25.87;12.50;;;7.70;99.90;;;;;;6271544;22;20326;-93
2023/04/09 05:15:16;;;;;;;24.83;12.13;;;7.80;99.90;;;;;;6245826;22;20020;-90
2023/04/09 05:17:42;;;;;;;27.13;11.57;;;7.80;99.90;;;;;;6246016;22;20015;-87
2023/04/09 05:20:09;;;;;;;23.58;10.77;;;7.80;99.90;;;;;;6246091;22;20253;-92
2023/04/09 05:22:35;;;;;;;23.40;11.30;;;7.80;99.90;;;;;;6271369;22;20066;-86
2023/04/09 05:25:06;;;;;;;28.17;11.60;;;7.80;99.90;;;;;;6248100;22;20016;-95
2023/04/09 05:27:32;;;;;;;26.35;12.85;;;7.80;99.90;;;;;;6221850;22;20432;-85
2023/04/09 05:29:58;;;;;;;27.87;12.10;;;7.80;99.90;;;;;;6275169;22;20027;-93
2023/04/09 05:32:24;;;;;;;27.87;11.80;;;7.80;99.90;;;;;;6275916;22;20437;-96
2023/04/09 05:34:49;;;;;;;28.57;12.33;;;7.90;99.90;;;;;;6248378;22;20262;-92
2023/04/09 05:37:15;;;;;;;31.27;12.20;;;7.90;99.90;;;;;;6248795;22;20430;-93
2023/04/09 05:40:05;;;;;;;24.23;11.83;;;7.90;99.90;;;;;;6245844;22;20094;-94
2023/04/09 05:43:05;;;;;;;29.67;14.07;;;7.80;99.90;;;;;;6246490;22;20075;-96
2023/04/09 05:45:32;;;;;;;35.75;15.07;;;7.80;99.90;;;;;;6246867;22;20019;-94
2023/04/09 05:47:57;;;;;;;32.65;12.82;;;7.90;99.90;;;;;;6221224;22;20041;-90
2023/04/09 05:50:23;;;;;;;30.30;13.50;;;7.90;99.90;;;;;;6221585;22;20015;-93
2023/04/09 05:52:49;;;;;;;29.43;14.20;;;7.90;99.90;;;;;;6274313;22;20463;-86
2023/04/09 05:55:20;;;;;;;33.53;14.57;;;7.90;99.90;;;;;;6273899;22;20115;-86
2023/04/09 05:57:46;;;;;;;31.25;13.23;;;7.90;99.90;;;;;;6247417;22;20068;-86
2023/04/09 06:00:17;;;;;;;30.88;14.82;;;7.90;99.90;;;;;;6247276;22;20022;-89
2023/04/09 06:02:45;;;;;;;32.38;14.98;;;8.00;99.90;;;;;;6222578;22;20026;-87
2023/04/09 06:05:11;;;;;;;36.47;16.00;;;8.00;99.90;;;;;;6273104;22;20398;-93
2023/04/09 06:07:37;;;;;;;32.33;14.13;;;8.00;99.90;;;;;;6222583;22;20019;-87
2023/04/09 06:10:03;;;;;;;30.63;13.53;;;8.00;99.90;;;;;;6222306;22;20016;-94
2023/04/09 06:12:28;;;;;;;32.77;14.97;;;8.00;99.90;;;;;;6274764;22;20016;-87
2023/04/09 06:14:54;;;;;;;29.27;14.07;;;8.00;99.90;;;;;;6273349;22;20469;-94
2023/04/09 06:17:20;;;;;;;30.60;13.63;;;8.20;99.90;;;;;;6274381;22;20016;-87
2023/04/09 06:19:45;;;;;;;26.37;13.17;;;8.10;99.90;;;;;;6273906;22;20020;-87
2023/04/09 06:22:11;;;;;;;33.03;15.07;;;8.20;99.90;;;;;;6274207;22;20337;-96
2023/04/09 06:24:37;;;;;;;29.57;14.07;;;8.20;99.90;;;;;;6272491;22;20048;-88
2023/04/09 06:27:02;;;;;;;30.17;13.63;;;8.20;99.90;;;;;;6272165;22;20022;-95
2023/04/09 06:29:28;;;;;;;28.17;14.13;;;8.20;99.90;;;;;;6272896;22;20068;-91
2023/04/09 06:31:54;;;;;;;26.70;13.37;;;8.20;99.90;;;;;;6273373;22;20393;-88
2023/04/09 06:34:19;;;;;;;29.87;13.67;;;8.30;99.90;;;;;;6273770;22;20040;-92
2023/04/09 06:36:45;;;;;;;29.43;13.20;;;8.20;99.90;;;;;;6275173;22;20020;-88
2023/04/09 06:39:11;;;;;;;28.52;14.52;;;8.30;99.90;;;;;;6248579;22;20023;-91
2023/04/09 06:41:37;;;;;;;28.77;13.60;;;8.30;99.90;;;;;;6250391;22;20015;-93
2023/04/09 06:46:46;;;;;;;25.67;11.85;;;8.30;99.90;;;;;;6364948;22;20109;-89
2023/04/09 06:49:12;;;;;;;27.50;11.37;;;8.40;99.90;;;;;;6348685;22;20435;-86
2023/04/09 06:51:37;;;;;;;26.10;11.70;;;8.40;99.90;;;;;;6348798;22;20010;-85
2023/04/09 06:54:03;;;;;;;25.17;11.80;;;8.40;99.90;;;;;;6321314;22;20106;-87
2023/04/09 06:56:41;;;;;;;25.73;12.50;;;8.40;99.90;;;;;;6374556;22;20017;-86
2023/04/09 06:59:07;;;;;;;28.05;13.20;;;8.40;99.90;;;;;;6348751;22;20010;-88
2023/04/09 07:02:03;;;;;;;29.47;12.77;;;8.40;99.90;;;;;;6296904;22;20526;-87
2023/04/09 07:04:49;;;;;;;31.88;14.80;;;8.40;99.90;;;;;;6375190;22;20116;-91
2023/04/09 07:07:30;;;;;;;31.08;15.60;;;8.40;99.90;;;;;;6349596;22;20020;-91
2023/04/09 07:09:56;;;;;;;30.95;15.30;;;8.40;99.90;;;;;;6349078;22;20017;-89
2023/04/09 07:12:32;;;;;;;32.80;15.93;;;8.40;99.90;;;;;;6323600;22;20013;-92
2023/04/09 07:14:59;;;;;;;30.80;14.82;;;8.40;99.90;;;;;;6298924;22;20338;-94
2023/04/09 07:17:24;;;;;;;29.88;14.82;;;8.40;99.90;;;;;;6349643;22;20097;-90
2023/04/09 07:22:27;;;;;;;28.33;13.20;;;8.50;99.90;;;;;;6407692;22;20029;-89
2023/04/09 07:24:53;;;;;;;28.88;13.23;;;8.50;99.90;;;;;;6325134;22;20020;-96
2023/04/09 07:27:28;;;;;;;27.17;13.38;;;8.50;99.90;;;;;;6291370;22;20027;-91
2023/04/09 07:29:55;;;;;;;26.73;13.10;;;8.50;99.90;;;;;;6278442;22;20019;-89
2023/04/09 07:32:21;;;;;;;26.73;13.07;;;8.60;99.90;;;;;;6225706;22;20568;-96
2023/04/09 07:34:47;;;;;;;25.80;12.48;;;8.60;99.90;;;;;;6250573;22;20479;-88
2023/04/09 07:37:13;;;;;;;24.50;13.00;;;8.60;99.90;;;;;;6254023;22;20019;-90
2023/04/09 07:39:38;;;;;;;22.47;12.03;;;8.60;99.90;;;;;;6275453;22;20090;-91
2023/04/09 07:42:04;;;;;;;25.73;12.50;;;8.70;99.90;;;;;;6273886;22;20102;-89
2023/04/09 07:44:35;;;;;;;23.63;11.25;;;8.70;99.90;;;;;;6274240;22;20456;-95
2023/04/09 07:47:01;;;;;;;21.13;10.55;;;8.80;99.90;;;;;;6222003;22;20031;-85
2023/04/09 07:49:27;;;;;;;21.65;10.45;;;9.00;99.90;;;;;;6246633;22;20027;-89
2023/04/09 07:51:53;;;;;;;22.00;10.23;;;9.20;99.90;;;;;;6274801;22;20023;-89
2023/04/09 07:54:20;;;;;;;24.07;10.80;;;9.40;99.90;;;;;;6246084;22;20390;-92
2023/04/09 07:56:46;;;;;;;20.45;10.85;;;9.60;99.90;;;;;;6246559;22;20026;-92
2023/04/09 07:59:14;;;;;;;;;;;9.60;99.90;;;;;;6273156;22;20016;-89
2023/04/09 08:01:40;;;;;;;22.58;10.52;;;9.60;99.90;;;;;;6272702;22;19957;-87
2023/04/09 08:04:06;;;;;;;20.77;9.82;;;9.50;99.90;;;;;;6245997;22;20302;-90
2023/04/09 08:06:32;;;;;;;23.23;10.67;;;9.50;99.90;;;;;;6245722;22;20062;-87
2023/04/09 08:08:57;;;;;;;22.10;10.33;;;9.40;99.90;;;;;;6219929;22;20039;-87
2023/04/09 08:11:24;;;;;;;24.50;11.10;;;9.30;99.90;;;;;;6220702;22;20270;-92
2023/04/09 08:13:53;;;;;;;;;;;9.30;99.90;;;;;;6245282;22;20100;-85
2023/04/09 08:16:20;;;;;;;19.13;10.18;;;9.10;99.90;;;;;;6271857;22;19915;-83
2023/04/09 08:18:46;;;;;;;21.98;9.70;;;9.10;99.90;;;;;;6270609;22;20024;-84
2023/04/09 08:21:12;;;;;;;22.17;10.93;;;9.00;99.90;;;;;;6238540;23;20039;-82
2023/04/09 08:23:37;;;;;;;22.50;10.20;;;9.00;99.90;;;;;;6240799;22;20456;-81
2023/04/09 08:26:03;;;;;;;22.80;10.10;;;9.00;99.90;;;;;;6239168;22;20659;-87
2023/04/09 08:28:29;;;;;;;23.53;9.77;;;9.00;99.90;;;;;;6239013;23;20017;-84
2023/04/09 08:30:55;;;;;;;24.30;10.40;;;9.00;99.90;;;;;;6239507;22;20156;-89
2023/04/09 08:33:21;;;;;;;20.60;10.00;;;9.00;99.90;;;;;;6238963;23;20508;-86
2023/04/09 08:35:46;;;;;;;21.00;9.47;;;9.00;99.90;;;;;;6239054;23;20151;-88
2023/04/09 08:38:12;;;;;;;19.07;9.60;;;9.00;99.90;;;;;;6239190;22;20020;-87
2023/04/09 08:40:38;;;;;;;19.73;9.07;;;9.10;99.90;;;;;;6238868;23;20051;-87
2023/04/09 08:43:06;;;;;;;23.90;10.10;;;9.20;99.90;;;;;;6239100;22;20468;-89
2023/04/09 08:45:32;;;;;;;20.88;9.82;;;9.30;99.90;;;;;;6239070;23;20016;-85
2023/04/09 08:47:58;;;;;;;20.23;9.70;;;9.30;99.90;;;;;;6239085;22;20068;-85
2023/04/09 08:50:25;;;;;;;22.73;11.23;;;9.40;99.90;;;;;;6240551;22;20445;-90
2023/04/09 08:52:51;;;;;;;22.20;10.52;;;9.40;99.90;;;;;;6240625;22;20236;-88
2023/04/09 08:55:17;;;;;;;;;;;9.40;99.90;;;;;;6240870;22;20072;-84
2023/04/09 08:57:43;;;;;;;23.33;10.30;;;9.40;99.90;;;;;;6240456;22;19916;-86
2023/04/09 09:00:09;;;;;;;21.93;11.17;;;9.40;99.90;;;;;;6239096;22;20445;-88
2023/04/09 09:02:35;;;;;;;23.70;10.82;;;9.50;99.90;;;;;;6238868;23;20020;-87
2023/04/09 09:05:07;;;;;;;23.35;10.45;;;9.50;99.90;;;;;;6238816;23;20012;-85
2023/04/09 09:07:33;;;;;;;22.75;10.38;;;9.60;99.90;;;;;;6238966;23;20387;-86
2023/04/09 09:10:03;;;;;;;19.92;10.10;;;9.60;99.90;;;;;;6238921;23;20016;-85
2023/04/09 09:12:32;;;;;;;21.70;10.02;;;9.70;99.90;;;;;;6240392;22;20012;-83
2023/04/09 09:14:58;;;;;;;20.23;9.45;;;9.80;99.90;;;;;;6213208;22;20069;-86
2023/04/09 09:17:25;;;;;;;25.50;10.32;;;9.80;99.90;;;;;;6239139;22;20020;-86
2023/04/09 09:20:23;;;;;;;21.35;10.93;;;9.80;99.90;;;;;;6240413;22;20051;-87
2023/04/09 09:22:59;;;;;;;19.13;10.43;;;9.80;99.90;;;;;;6238400;23;20445;-85
2023/04/09 09:25:36;;;;;;;23.63;10.80;;;9.90;99.90;;;;;;6214441;23;20031;-84
2023/04/09 09:28:08;;;;;;;24.23;11.05;;;10.00;99.90;;;;;;6265588;22;20019;-85
2023/04/09 09:30:35;;;;;;;22.98;10.30;;;10.00;99.90;;;;;;6240225;23;20016;-86
2023/04/09 09:33:09;;;;;;;21.35;10.02;;;10.00;99.90;;;;;;6215248;22;20012;-86
2023/04/09 09:35:54;;;;;;;20.73;9.85;;;10.10;99.90;;;;;;6243514;22;20038;-88
2023/04/09 09:38:20;;;;;;;19.98;10.05;;;10.10;99.90;;;;;;6215513;22;20052;-85
2023/04/09 09:40:46;;;;;;;23.30;10.43;;;10.20;99.90;;;;;;6240945;22;20044;-86
2023/04/09 09:43:13;;;;;;;16.90;9.15;;;10.20;99.90;;;;;;6243106;23;20052;-84
2023/04/09 09:45:40;;;;;;;19.25;9.75;;;10.20;99.90;;;;;;6242977;23;20027;-83
2023/04/09 09:48:09;;;;;;;21.27;9.40;;;10.30;99.90;;;;;;6241747;22;20008;-83
2023/04/09 09:50:37;;;;;;;21.20;10.25;;;10.40;99.90;;;;;;6242116;22;20012;-87
2023/04/09 09:53:07;;;;;;;19.30;9.43;;;10.40;99.90;;;;;;6265886;22;20008;-87
2023/04/09 09:55:38;;;;;;;21.58;10.63;;;10.50;99.90;;;;;;6215436;22;20020;-89
2023/04/09 09:58:23;;;;;;;20.23;9.02;;;10.50;99.90;;;;;;6242899;22;20023;-94
2023/04/09 10:00:51;;;;;;;21.02;10.07;;;10.60;99.90;;;;;;6215917;23;20016;-94
2023/04/09 10:03:24;;;;;;;19.92;9.93;;;10.60;99.90;;;;;;6241757;23;20016;-85
2023/04/09 10:05:50;;;;;;;21.80;10.18;;;10.60;99.90;;;;;;6242741;22;20344;-88
2023/04/09 10:08:16;;;;;;;23.80;10.25;;;10.70;99.90;;;;;;6242147;22;20020;-88
2023/04/09 10:10:43;;;;;;;19.65;9.57;;;10.80;99.90;;;;;;6240553;22;20437;-92
2023/04/09 10:13:14;;;;;;;;;;;10.80;99.90;;;;;;6241875;23;20020;-92
2023/04/09 10:15:41;;;;;;;19.38;8.93;;;10.80;99.90;;;;;;6243460;23;20424;-92
2023/04/09 10:18:07;;;;;;;19.38;10.07;;;10.80;99.90;;;;;;6215997;23;20051;-93
2023/04/09 10:20:55;;;;;;;19.73;10.13;;;10.90;99.90;;;;;;6244711;22;20020;-82
2023/04/09 10:23:31;;;;;;;20.67;10.70;;;11.00;99.90;;;;;;6215505;23;20377;-84
2023/04/09 10:25:57;;;;;;;21.73;10.73;;;11.00;99.90;;;;;;6214753;23;20048;-86
2023/04/09 10:28:23;;;;;;;20.65;11.57;;;11.20;99.90;;;;;;6242061;23;20022;-83
2023/04/09 10:30:49;;;;;;;19.03;10.40;;;11.20;99.90;;;;;;6214693;23;20024;-84
2023/04/09 10:33:16;;;;;;;19.13;10.43;;;11.40;99.90;;;;;;6242439;23;20251;-87
2023/04/09 10:35:45;;;;;;;20.35;9.68;;;11.50;99.90;;;;;;6214539;23;20023;-85
2023/04/09 10:38:37;;;;;;;22.13;10.52;;;11.80;99.90;;;;;;6215170;23;20012;-87
2023/04/09 10:41:26;;;;;;;21.75;10.32;;;12.10;99.90;;;;;;6214489;23;20046;-88
2023/04/09 10:43:55;;;;;;;19.90;10.43;;;12.20;99.90;;;;;;6164822;23;20341;-87
2023/04/09 10:46:30;;;;;;;21.77;10.80;;;12.30;99.90;;;;;;6190432;23;20449;-89
2023/04/09 10:49:14;;;;;;;22.33;10.00;;;12.20;99.90;;;;;;6215018;23;20341;-84
2023/04/09 10:52:12;;;;;;;20.52;10.25;;;12.30;99.90;;;;;;6215567;23;20016;-89
2023/04/09 10:54:42;;;;;;;;;;;12.40;99.90;;;;;;6190027;22;20390;-88
2023/04/09 10:57:14;;;;;;;20.10;10.75;;;12.30;99.90;;;;;;6192173;23;20043;-88
2023/04/09 10:59:44;;;;;;;22.50;10.00;;;12.20;99.90;;;;;;6214689;23;20040;-91
2023/04/09 11:02:31;;;;;;;20.98;10.57;;;12.20;99.90;;;;;;6216436;23;20020;-90
2023/04/09 11:05:35;;;;;;;;;;;12.20;99.90;;;;;;6190105;23;20016;-89
2023/04/09 11:08:09;;;;;;;19.13;10.20;;;12.20;99.90;;;;;;6214531;23;19922;-92
2023/04/09 11:10:37;;;;;;;24.77;11.75;;;12.20;99.90;;;;;;6214449;23;20457;-89
2023/04/09 11:13:19;;;;;;;21.40;10.73;;;12.20;99.90;;;;;;6214873;23;20016;-89
2023/04/09 11:15:51;;;;;;;22.30;11.07;;;12.20;99.90;;;;;;6215570;23;20051;-89
2023/04/09 11:18:22;;;;;;;17.67;9.65;;;12.40;99.90;;;;;;6241073;23;20462;-87
2023/04/09 11:20:47;;;;;;;20.48;9.70;;;12.60;99.90;;;;;;6189067;23;20012;-89
2023/04/09 11:23:15;;;;;;;17.15;9.55;;;12.70;99.90;;;;;;6238773;23;20074;-89
2023/04/09 11:25:41;;;;;;;24.27;10.25;;;12.80;99.90;;;;;;6238352;23;20111;-87
2023/04/09 11:28:07;;;;;;;17.37;9.13;;;12.80;99.90;;;;;;6239480;22;20117;-87
2023/04/09 11:30:34;;;;;;;21.27;9.32;;;12.80;99.90;;;;;;6239978;23;20012;-92
2023/04/09 11:33:01;;;;;;;19.55;10.02;;;12.80;99.90;;;;;;6215324;23;20429;-89
2023/04/09 11:35:28;;;;;;;;;;;12.80;99.90;;;;;;6241562;23;20441;-85
2023/04/09 11:38:23;;;;;;;20.63;9.98;;;12.70;99.90;;;;;;6214546;23;19915;-87
2023/04/09 11:40:50;;;;;;;17.38;9.75;;;12.70;99.90;;;;;;6247545;22;20070;-89
2023/04/09 11:43:16;;;;;;;19.38;10.40;;;12.70;99.90;;;;;;6320256;22;20023;-86
2023/04/09 11:45:43;;;;;;;18.80;9.68;;;12.70;99.90;;;;;;6240158;23;20344;-89
2023/04/09 11:48:09;;;;;;;;;;;12.70;99.90;;;;;;6189706;23;20013;-94
2023/04/09 11:50:36;;;;;;;22.60;9.00;;;12.80;99.90;;;;;;6239911;23;20388;-91
2023/04/09 11:53:54;;;;;;;22.02;10.20;;;12.90;99.90;;;;;;6241813;22;20027;-91
2023/04/09 11:57:09;;;;;;;19.98;9.25;;;12.90;99.90;;;;;;6266084;22;20068;-95
2023/04/09 11:59:38;;;;;;;22.67;10.05;;;13.00;99.90;;;;;;6241017;22;20028;-92
2023/04/09 12:02:06;;;;;;;19.30;9.55;;;13.00;99.90;;;;;;6215440;23;20012;-94
2023/04/09 12:04:32;;;;;;;17.48;9.20;;;13.20;99.90;;;;;;6240326;23;20016;-89
2023/04/09 12:06:58;;;;;;;16.02;9.05;;;13.50;99.90;;;;;;6240748;23;20095;-90
2023/04/09 12:12:18;;;;;;;17.23;8.88;;;14.00;99.90;;;;;;6401985;22;20028;-93
2023/04/09 12:14:47;;;;;;;23.73;9.55;;;14.30;99.90;;;;;;6241200;22;20078;-93
2023/04/09 12:17:13;;;;;;;19.27;9.23;;;14.50;99.90;;;;;;6216781;22;20481;-91
2023/04/09 12:19:39;;;;;;;17.43;9.10;;;14.70;99.90;;;;;;6244130;22;20038;-87
2023/04/09 12:22:05;;;;;;;19.95;9.35;;;14.80;99.90;;;;;;6245261;22;20255;-90
2023/04/09 12:24:30;;;;;;;19.00;9.40;;;14.90;99.90;;;;;;6279688;22;20014;-92
2023/04/09 12:26:56;;;;;;;20.37;9.67;;;15.00;99.90;;;;;;6230000;22;20029;-91
2023/04/09 12:29:23;;;;;;;15.98;8.95;;;15.10;99.90;;;;;;6247672;22;20014;-92
2023/04/09 12:31:49;;;;;;;17.00;8.30;;;15.20;99.90;;;;;;6266630;22;20096;-91
2023/04/09 12:34:15;;;;;;;19.05;9.65;;;15.30;99.90;;;;;;6241146;22;20049;-91
2023/04/09 12:36:40;;;;;;;17.73;9.00;;;15.50;99.90;;;;;;6216642;22;20070;-91
2023/04/09 12:39:08;;;;;;;16.20;8.65;;;15.50;99.90;;;;;;6241159;22;20019;-92
2023/04/09 12:41:34;;;;;;;16.30;8.43;;;15.40;99.90;;;;;;6241538;22;20101;-92
2023/04/09 12:44:00;;;;;;;16.90;8.65;;;15.20;99.90;;;;;;6266373;22;20013;-90
2023/04/09 12:46:27;;;;;;;15.73;7.80;;;15.00;99.90;;;;;;6217183;22;20014;-91
2023/04/09 12:48:53;;;;;;;17.40;8.57;;;14.80;99.90;;;;;;6241083;22;20074;-94
2023/04/09 12:51:19;;;;;;;16.90;9.02;;;14.70;99.90;;;;;;6241135;22;20045;-92
2023/04/09 12:53:46;;;;;;;16.38;8.02;;;14.80;99.90;;;;;;6241542;22;20047;-92
2023/04/09 12:56:12;;;;;;;17.85;8.05;;;14.90;99.90;;;;;;6241338;22;20014;-89
2023/04/09 12:58:37;;;;;;;15.40;7.17;;;15.10;99.90;;;;;;6241238;22;20028;-91
2023/04/09 13:01:04;;;;;;;14.25;7.70;;;15.30;99.90;;;;;;6267480;22;20778;-90